Time;durP1;ratioP1;P1;durP2;ratioP2;P2;SDS_P1;SDS_P2;PMS_P1;PMS_P2;Temp;Humidity;BMP_temperature;BMP_pressure;BME280_temperature;BME280_humidity;BME280_pressure;Samples;Min_cycle;Max_cycle;Signal;HPM_P1;HPM_P2
2021/10/16 00:00:34;;;;;;;5.97;1.35;;;8.10;99.90;;;;;;5106885;28;20032;-80
2021/10/16 00:02:59;;;;;;;10.25;1.48;;;8.00;99.90;;;;;;5093525;27;20085;-80
2021/10/16 00:05:25;;;;;;;9.57;1.10;;;8.00;99.90;;;;;;5091080;28;20417;-79
2021/10/16 00:07:51;;;;;;;8.20;1.40;;;8.00;99.90;;;;;;5099518;28;20131;-79
2021/10/16 00:10:17;;;;;;;12.10;1.48;;;7.90;99.90;;;;;;5100839;28;20447;-79
2021/10/16 00:12:42;;;;;;;14.25;1.52;;;7.90;99.90;;;;;;5101983;28;20072;-79
2021/10/16 00:15:08;;;;;;;8.70;1.17;;;7.90;99.90;;;;;;5094603;28;20043;-78
2021/10/16 00:17:34;;;;;;;15.68;1.63;;;7.90;99.90;;;;;;5108802;28;20397;-80
2021/10/16 00:20:00;;;;;;;7.68;1.13;;;7.90;99.90;;;;;;5095310;28;20397;-79
2021/10/16 00:22:25;;;;;;;10.18;1.80;;;7.90;99.90;;;;;;5108182;28;20044;-80
2021/10/16 00:24:51;;;;;;;11.38;1.38;;;7.80;99.90;;;;;;5104658;28;20097;-79
2021/10/16 00:27:17;;;;;;;16.77;1.50;;;7.80;99.90;;;;;;5087642;28;20402;-78
2021/10/16 00:29:43;;;;;;;14.20;1.67;;;7.80;99.90;;;;;;5086925;28;20129;-78
2021/10/16 00:32:10;;;;;;;11.50;1.70;;;7.90;99.90;;;;;;5108943;28;20116;-78
2021/10/16 00:34:36;;;;;;;11.45;1.20;;;7.90;99.90;;;;;;5104727;28;20599;-78
2021/10/16 00:37:01;;;;;;;11.00;1.60;;;7.90;99.90;;;;;;5103076;28;20048;-77
2021/10/16 00:39:27;;;;;;;17.38;1.67;;;7.90;99.90;;;;;;5104610;28;20040;-77
2021/10/16 00:41:53;;;;;;;9.85;1.15;;;7.90;99.90;;;;;;5098034;28;20098;-77
2021/10/16 00:44:24;;;;;;;9.10;1.02;;;8.00;99.90;;;;;;5107381;28;20044;-77
2021/10/16 00:46:58;;;;;;;19.50;1.58;;;8.00;99.90;;;;;;5106071;28;20050;-77
2021/10/16 00:49:29;;;;;;;8.85;1.02;;;8.00;99.90;;;;;;5105842;28;20154;-77
2021/10/16 00:51:59;;;;;;;21.42;2.78;;;8.00;99.90;;;;;;5092737;28;20028;-77
2021/10/16 00:54:25;;;;;;;12.52;1.45;;;8.00;99.90;;;;;;5105371;28;20051;-78
2021/10/16 00:56:52;;;;;;;18.30;1.95;;;8.10;99.90;;;;;;5098542;28;20043;-78
2021/10/16 00:59:19;;;;;;;14.48;1.40;;;8.10;99.90;;;;;;5087963;28;20554;-78
2021/10/16 01:01:45;;;;;;;11.10;1.20;;;8.10;99.90;;;;;;5093330;28;20481;-78
2021/10/16 01:04:12;;;;;;;16.92;1.58;;;8.10;99.90;;;;;;5106325;27;20071;-78
2021/10/16 01:06:38;;;;;;;9.20;1.27;;;8.10;99.90;;;;;;5091588;28;20051;-79
2021/10/16 01:09:08;;;;;;;6.57;1.20;;;8.10;99.90;;;;;;5088617;28;20052;-80
2021/10/16 01:11:36;;;;;;;11.00;1.65;;;8.20;99.90;;;;;;5111061;27;20093;-80
2021/10/16 01:14:09;;;;;;;15.82;2.20;;;8.20;99.90;;;;;;5104929;28;20062;-79
2021/10/16 01:16:35;;;;;;;7.32;1.42;;;8.10;99.90;;;;;;5094709;28;20043;-79
2021/10/16 01:19:05;;;;;;;17.90;2.63;;;8.10;99.90;;;;;;5106649;28;20130;-79
2021/10/16 01:21:32;;;;;;;11.80;2.20;;;8.20;99.90;;;;;;5106764;28;20481;-80
2021/10/16 01:23:59;;;;;;;8.70;1.70;;;8.10;99.90;;;;;;5090456;28;20054;-80
2021/10/16 01:26:29;;;;;;;11.63;1.95;;;8.10;99.90;;;;;;5105855;28;20099;-80
2021/10/16 01:28:56;;;;;;;8.75;1.88;;;8.10;99.90;;;;;;5107535;28;20068;-80
2021/10/16 01:31:26;;;;;;;9.27;1.73;;;8.00;99.90;;;;;;5105811;28;20138;-80
2021/10/16 01:33:52;;;;;;;9.32;1.75;;;8.00;99.90;;;;;;5107265;28;20077;-78
2021/10/16 01:36:19;;;;;;;18.98;1.90;;;8.00;99.90;;;;;;5107692;28;20055;-79
2021/10/16 01:38:45;;;;;;;8.45;1.42;;;7.90;99.90;;;;;;5107116;28;20535;-80
2021/10/16 01:41:11;;;;;;;5.05;1.63;;;7.90;99.90;;;;;;5107725;28;20083;-78
2021/10/16 01:43:37;;;;;;;10.45;1.90;;;7.90;99.90;;;;;;5123391;28;20086;-78
2021/10/16 01:46:03;;;;;;;10.95;1.65;;;7.90;99.90;;;;;;5090667;28;20039;-78
2021/10/16 01:48:29;;;;;;;17.38;3.58;;;7.80;99.90;;;;;;5106737;28;20443;-78
2021/10/16 01:50:55;;;;;;;8.45;1.52;;;7.80;99.90;;;;;;5107325;28;20039;-79
2021/10/16 01:53:21;;;;;;;12.73;2.53;;;7.80;99.90;;;;;;5109905;28;20134;-79
2021/10/16 01:55:48;;;;;;;16.60;2.38;;;7.70;99.90;;;;;;5111528;28;20145;-79
2021/10/16 01:58:16;;;;;;;5.65;1.52;;;7.70;99.90;;;;;;5111192;28;20040;-78
2021/10/16 02:00:47;;;;;;;14.15;1.75;;;7.70;99.90;;;;;;5111620;28;20063;-78
2021/10/16 02:03:14;;;;;;;9.98;1.70;;;7.70;99.90;;;;;;5111247;28;20043;-78
2021/10/16 02:05:44;;;;;;;10.88;3.03;;;7.70;99.90;;;;;;5109678;28;20107;-78
2021/10/16 02:08:10;;;;;;;;;;;7.70;99.90;;;;;;5112953;28;20063;-78
2021/10/16 02:10:37;;;;;;;12.43;1.70;;;7.60;99.90;;;;;;5096020;28;19973;-78
2021/10/16 02:13:03;;;;;;;12.65;1.60;;;7.60;99.90;;;;;;5110628;28;20088;-78
2021/10/16 02:15:28;;;;;;;17.35;2.67;;;7.60;99.90;;;;;;5112578;28;20057;-78
2021/10/16 02:17:54;;;;;;;17.50;2.85;;;7.60;99.90;;;;;;5108138;28;20076;-79
2021/10/16 02:20:20;;;;;;;12.05;1.75;;;7.70;99.90;;;;;;5099670;28;20044;-79
2021/10/16 02:22:45;;;;;;;17.05;2.10;;;7.60;99.90;;;;;;5090803;28;20047;-79
2021/10/16 02:25:11;;;;;;;12.15;1.88;;;7.60;99.90;;;;;;5110877;28;20104;-79
2021/10/16 02:27:37;;;;;;;14.93;2.13;;;7.70;99.90;;;;;;5095228;28;20166;-79
2021/10/16 02:30:03;;;;;;;9.27;1.85;;;7.60;99.90;;;;;;5110552;28;20040;-79
2021/10/16 02:32:29;;;;;;;13.48;2.15;;;7.60;99.90;;;;;;5097937;28;20441;-79
2021/10/16 02:34:55;;;;;;;16.58;2.38;;;7.60;99.90;;;;;;5098029;28;20035;-79
2021/10/16 02:37:20;;;;;;;22.38;2.25;;;7.60;99.90;;;;;;5083523;28;20072;-79
2021/10/16 02:39:46;;;;;;;15.50;1.88;;;7.60;99.90;;;;;;5104931;28;20031;-79
2021/10/16 02:42:12;;;;;;;14.90;1.92;;;7.60;99.90;;;;;;5110621;28;20048;-79
2021/10/16 02:44:38;;;;;;;13.60;2.00;;;7.70;99.90;;;;;;5109291;28;20051;-79
2021/10/16 02:47:04;;;;;;;14.35;2.35;;;7.70;99.90;;;;;;5110683;28;20427;-79
2021/10/16 02:49:29;;;;;;;13.70;2.47;;;7.70;99.90;;;;;;5109111;28;20466;-80
2021/10/16 02:51:55;;;;;;;18.45;2.17;;;7.70;99.90;;;;;;5110015;28;20462;-79
2021/10/16 02:54:21;;;;;;;9.23;2.40;;;7.70;99.90;;;;;;5110325;28;20047;-78
2021/10/16 02:56:47;;;;;;;10.90;2.00;;;7.70;99.90;;;;;;5109374;28;20050;-79
2021/10/16 02:59:13;;;;;;;22.00;2.53;;;7.70;99.90;;;;;;5093019;28;20040;-78
2021/10/16 03:01:39;;;;;;;13.48;2.08;;;7.70;99.90;;;;;;5117485;27;20103;-79
2021/10/16 03:04:05;;;;;;;9.10;2.25;;;7.70;99.90;;;;;;5099281;28;20040;-78
2021/10/16 03:06:31;;;;;;;15.20;2.83;;;7.80;99.90;;;;;;5108735;28;20040;-79
2021/10/16 03:08:56;;;;;;;20.08;2.20;;;7.70;99.90;;;;;;5109360;28;20055;-79
2021/10/16 03:11:22;;;;;;;21.90;3.03;;;7.70;99.90;;;;;;5096249;28;20066;-79
2021/10/16 03:13:48;;;;;;;17.67;2.10;;;7.70;99.90;;;;;;5109394;28;20044;-80
2021/10/16 03:16:14;;;;;;;15.07;2.10;;;7.70;99.90;;;;;;5108830;28;20096;-80
2021/10/16 03:18:39;;;;;;;11.13;2.05;;;7.70;99.90;;;;;;5109934;28;20051;-80
2021/10/16 03:21:05;;;;;;;16.88;2.33;;;7.70;99.90;;;;;;5107643;28;20052;-80
2021/10/16 03:23:31;;;;;;;13.52;1.80;;;7.80;99.90;;;;;;5096183;28;20054;-80
2021/10/16 03:25:56;;;;;;;20.13;2.25;;;7.70;99.90;;;;;;5109597;28;20048;-80
2021/10/16 03:28:22;;;;;;;12.65;2.30;;;7.80;99.90;;;;;;5108286;28;20044;-79
2021/10/16 03:30:48;;;;;;;11.07;2.00;;;7.80;99.90;;;;;;5110080;28;20397;-79
2021/10/16 03:33:14;;;;;;;17.40;2.60;;;7.90;99.90;;;;;;5073382;28;20379;-79
2021/10/16 03:35:41;;;;;;;15.90;2.72;;;7.90;99.90;;;;;;5099217;28;20044;-79
2021/10/16 03:38:06;;;;;;;12.20;2.20;;;7.90;99.90;;;;;;5107151;28;20397;-79
2021/10/16 03:40:32;;;;;;;11.02;1.77;;;7.90;99.90;;;;;;5096548;28;20043;-79
2021/10/16 03:42:58;;;;;;;31.73;3.95;;;7.90;99.90;;;;;;5109189;28;20128;-79
2021/10/16 03:45:24;;;;;;;23.95;2.20;;;8.00;99.90;;;;;;5108015;28;20075;-79
2021/10/16 03:47:50;;;;;;;11.68;2.72;;;8.00;99.90;;;;;;5092486;28;20135;-79
2021/10/16 03:50:16;;;;;;;12.95;2.08;;;8.00;99.90;;;;;;5108445;28;20123;-79
2021/10/16 03:52:41;;;;;;;18.75;2.88;;;8.00;99.90;;;;;;5109105;28;20535;-79
2021/10/16 03:55:07;;;;;;;12.02;1.65;;;8.00;99.90;;;;;;5108735;28;20048;-78
2021/10/16 03:57:33;;;;;;;16.25;3.55;;;8.00;99.90;;;;;;5109320;27;20047;-78
2021/10/16 04:00:00;;;;;;;12.02;1.73;;;8.00;99.90;;;;;;5109155;28;20126;-78
2021/10/16 04:02:27;;;;;;;14.05;2.33;;;8.00;99.90;;;;;;5107547;28;20035;-79
2021/10/16 04:04:53;;;;;;;13.55;2.25;;;8.00;99.90;;;;;;5108663;28;20051;-79
2021/10/16 04:07:19;;;;;;;25.05;3.17;;;8.00;99.90;;;;;;5106664;28;20042;-78
2021/10/16 04:09:45;;;;;;;7.22;1.65;;;8.00;99.90;;;;;;5103155;28;20056;-79
2021/10/16 04:12:11;;;;;;;8.40;2.03;;;8.10;99.90;;;;;;5107735;28;20078;-79
2021/10/16 04:14:37;;;;;;;11.95;1.83;;;8.20;99.90;;;;;;5124625;27;20131;-79
2021/10/16 04:17:03;;;;;;;16.58;2.67;;;8.30;99.90;;;;;;5108845;28;20124;-79
2021/10/16 04:19:29;;;;;;;12.38;2.03;;;8.30;99.90;;;;;;5107140;28;20047;-79
2021/10/16 04:21:55;;;;;;;28.35;2.65;;;8.40;99.90;;;;;;5100038;28;20058;-78
2021/10/16 04:24:21;;;;;;;14.60;2.13;;;8.40;99.90;;;;;;5101468;28;20047;-79
2021/10/16 04:26:47;;;;;;;9.18;1.88;;;8.40;99.90;;;;;;5108516;28;20052;-79
2021/10/16 04:29:13;;;;;;;11.18;2.08;;;8.50;99.90;;;;;;5107392;28;20066;-79
2021/10/16 04:31:38;;;;;;;14.73;1.90;;;8.50;99.90;;;;;;5107999;28;20048;-79
2021/10/16 04:34:06;;;;;;;17.80;2.20;;;8.60;99.90;;;;;;5109737;28;20054;-78
2021/10/16 04:36:35;;;;;;;12.07;1.85;;;8.60;99.90;;;;;;5106979;28;20124;-78
2021/10/16 04:39:01;;;;;;;14.13;1.85;;;8.60;99.90;;;;;;5098396;28;20048;-79
2021/10/16 04:41:27;;;;;;;17.65;2.38;;;8.50;99.90;;;;;;5088412;28;20153;-79
2021/10/16 04:43:53;;;;;;;7.93;2.00;;;8.60;99.90;;;;;;5108597;28;20481;-78
2021/10/16 04:46:23;;;;;;;11.32;2.85;;;8.60;99.90;;;;;;5092811;28;20055;-78
2021/10/16 04:48:49;;;;;;;22.95;2.22;;;8.60;99.90;;;;;;5090560;28;20056;-79
2021/10/16 04:51:15;;;;;;;17.95;2.35;;;8.60;99.90;;;;;;5099889;28;20057;-78
2021/10/16 04:53:40;;;;;;;9.10;1.60;;;8.60;99.90;;;;;;5106797;28;20147;-78
2021/10/16 04:56:06;;;;;;;9.90;2.00;;;8.60;99.90;;;;;;5107154;28;20047;-78
2021/10/16 04:58:32;;;;;;;14.82;1.45;;;8.60;99.90;;;;;;5107848;28;20201;-78
2021/10/16 05:00:58;;;;;;;18.10;2.13;;;8.60;99.90;;;;;;5108408;28;20048;-79
2021/10/16 05:03:24;;;;;;;11.45;1.83;;;8.60;99.90;;;;;;5082502;28;20047;-78
2021/10/16 05:05:52;;;;;;;8.85;1.65;;;8.60;99.90;;;;;;5109899;28;20515;-78
2021/10/16 05:08:18;;;;;;;14.95;1.85;;;8.50;99.90;;;;;;5077237;28;20517;-78
2021/10/16 05:10:43;;;;;;;11.02;1.65;;;8.50;99.90;;;;;;5091376;28;20052;-78
2021/10/16 05:13:09;;;;;;;9.32;1.98;;;8.50;99.90;;;;;;5109413;28;20036;-78
2021/10/16 05:15:35;;;;;;;13.50;1.80;;;8.60;99.90;;;;;;5107705;28;20477;-78
2021/10/16 05:18:00;;;;;;;10.60;1.83;;;8.50;99.90;;;;;;5107465;28;20130;-78
2021/10/16 05:20:26;;;;;;;12.23;2.00;;;8.50;99.90;;;;;;5105163;28;20047;-77
2021/10/16 05:22:52;;;;;;;3.88;1.17;;;8.50;99.90;;;;;;5094660;28;20514;-78
2021/10/16 05:25:18;;;;;;;9.27;1.98;;;8.50;99.90;;;;;;5107941;28;20123;-78
2021/10/16 05:27:43;;;;;;;15.45;2.42;;;8.50;99.90;;;;;;5106452;28;20046;-79
2021/10/16 05:30:10;;;;;;;17.08;1.98;;;8.50;99.90;;;;;;5090299;28;20119;-79
2021/10/16 05:32:36;;;;;;;10.35;1.52;;;8.50;99.90;;;;;;5089457;28;20047;-79
2021/10/16 05:35:02;;;;;;;11.50;1.80;;;8.50;99.90;;;;;;5107847;28;20056;-79
2021/10/16 05:37:28;;;;;;;11.85;1.77;;;8.50;99.90;;;;;;5107486;28;20386;-79
2021/10/16 05:39:54;;;;;;;13.23;1.85;;;8.50;99.90;;;;;;5109126;28;20043;-79
2021/10/16 05:42:20;;;;;;;10.38;2.28;;;8.50;99.90;;;;;;5105270;28;20439;-79
2021/10/16 05:44:45;;;;;;;10.98;1.88;;;8.50;99.90;;;;;;5095263;28;20043;-79
2021/10/16 05:47:11;;;;;;;20.23;2.05;;;8.50;99.90;;;;;;5101701;28;20043;-80
2021/10/16 05:49:37;;;;;;;12.63;1.80;;;8.50;99.90;;;;;;5086182;28;20109;-79
2021/10/16 05:52:04;;;;;;;11.38;2.13;;;8.50;99.90;;;;;;5102745;28;20047;-78
2021/10/16 05:54:29;;;;;;;7.97;1.50;;;8.50;99.90;;;;;;5084727;28;20044;-78
2021/10/16 05:56:55;;;;;;;15.40;2.13;;;8.50;99.90;;;;;;5087022;28;20032;-78
2021/10/16 05:59:21;;;;;;;7.43;1.70;;;8.50;99.90;;;;;;5088500;28;20043;-79
2021/10/16 06:01:46;;;;;;;21.45;3.08;;;8.60;99.90;;;;;;5092893;28;20526;-79
2021/10/16 06:04:12;;;;;;;12.63;1.65;;;8.60;99.90;;;;;;5068714;28;20048;-79
2021/10/16 06:06:37;;;;;;;7.57;1.63;;;8.60;99.90;;;;;;5088057;28;20052;-79
2021/10/16 06:09:03;;;;;;;8.05;1.40;;;8.60;99.90;;;;;;5086511;28;20057;-79
2021/10/16 06:11:29;;;;;;;11.50;1.83;;;8.60;99.90;;;;;;5092468;28;20043;-79
2021/10/16 06:13:55;;;;;;;7.05;1.70;;;8.60;99.90;;;;;;5107061;28;20052;-80
2021/10/16 06:16:20;;;;;;;8.20;1.75;;;8.60;99.90;;;;;;5105073;28;20039;-80
2021/10/16 06:18:46;;;;;;;10.98;2.00;;;8.60;99.90;;;;;;5107626;28;20062;-80
2021/10/16 06:21:13;;;;;;;10.82;1.38;;;8.60;99.90;;;;;;5102313;28;20073;-80
2021/10/16 06:23:39;;;;;;;9.30;1.77;;;8.60;99.90;;;;;;5096116;28;20532;-80
2021/10/16 06:26:05;;;;;;;12.25;1.80;;;8.70;99.90;;;;;;5106483;28;20079;-80
2021/10/16 06:28:31;;;;;;;12.75;2.60;;;8.70;99.90;;;;;;5105657;28;20050;-80
2021/10/16 06:30:57;;;;;;;12.82;2.00;;;8.70;99.90;;;;;;5107045;28;20052;-80
2021/10/16 06:33:24;;;;;;;9.00;1.70;;;8.60;99.90;;;;;;5105104;28;20082;-80
2021/10/16 06:35:54;;;;;;;9.70;1.92;;;8.70;99.90;;;;;;5107064;28;20058;-79
2021/10/16 06:38:21;;;;;;;5.05;1.63;;;8.70;99.90;;;;;;5107173;28;20126;-79
2021/10/16 06:40:46;;;;;;;6.65;1.60;;;8.70;99.90;;;;;;5110808;28;20079;-80
2021/10/16 06:43:12;;;;;;;13.63;2.05;;;8.70;99.90;;;;;;5109261;28;20079;-79
2021/10/16 06:45:38;;;;;;;17.60;2.00;;;8.70;99.90;;;;;;5111529;28;20043;-79
2021/10/16 06:48:04;;;;;;;11.18;1.60;;;8.70;99.90;;;;;;5093679;28;20508;-79
2021/10/16 06:50:30;;;;;;;7.97;1.45;;;8.70;99.90;;;;;;5108711;28;20043;-79
2021/10/16 06:52:55;;;;;;;11.65;2.08;;;8.70;99.90;;;;;;5110908;28;20054;-79
2021/10/16 06:55:21;;;;;;;11.25;1.40;;;8.70;99.90;;;;;;5108358;28;20052;-78
2021/10/16 06:57:47;;;;;;;10.60;1.55;;;8.70;99.90;;;;;;5127840;27;20039;-78
2021/10/16 07:00:13;;;;;;;8.18;1.77;;;8.80;99.90;;;;;;5108588;28;20467;-79
2021/10/16 07:02:38;;;;;;;11.88;2.50;;;8.80;99.90;;;;;;5095411;28;20407;-79
2021/10/16 07:05:05;;;;;;;10.55;1.88;;;8.80;99.90;;;;;;5107501;27;20170;-79
2021/10/16 07:07:31;;;;;;;12.70;2.03;;;8.80;99.90;;;;;;5102055;28;20048;-78
2021/10/16 07:09:56;;;;;;;5.15;1.42;;;8.90;99.90;;;;;;5089711;28;20056;-78
2021/10/16 07:12:23;;;;;;;11.13;2.00;;;8.90;99.90;;;;;;5094359;28;20047;-78
2021/10/16 07:14:49;;;;;;;18.85;2.10;;;8.90;99.90;;;;;;5090025;28;20075;-78
2021/10/16 07:17:15;;;;;;;16.63;2.92;;;8.90;99.90;;;;;;5095054;28;20074;-78
2021/10/16 07:19:41;;;;;;;8.23;1.90;;;8.90;99.90;;;;;;5089611;28;20542;-78
2021/10/16 07:22:07;;;;;;;7.50;1.95;;;9.00;99.90;;;;;;5094307;28;20039;-79
2021/10/16 07:24:33;;;;;;;13.75;2.28;;;9.00;99.90;;;;;;5091014;28;20043;-79
2021/10/16 07:26:59;;;;;;;9.95;1.63;;;9.10;99.90;;;;;;5090777;28;20397;-79
2021/10/16 07:29:24;;;;;;;11.23;2.38;;;9.00;99.90;;;;;;5089150;28;20036;-79
2021/10/16 07:31:52;;;;;;;11.35;2.40;;;9.10;99.90;;;;;;5088808;28;20040;-79
2021/10/16 07:34:18;;;;;;;14.40;1.92;;;9.10;99.90;;;;;;5092509;28;20099;-79
2021/10/16 07:36:45;;;;;;;9.02;2.28;;;9.10;99.90;;;;;;5105819;28;20389;-79
2021/10/16 07:39:11;;;;;;;14.68;2.30;;;9.10;99.90;;;;;;5085918;28;20036;-79
2021/10/16 07:41:38;;;;;;;7.88;1.95;;;9.20;99.90;;;;;;5106488;28;20588;-79
2021/10/16 07:44:05;;;;;;;10.48;2.25;;;9.20;99.90;;;;;;5099797;28;20132;-79
2021/10/16 07:46:31;;;;;;;13.32;2.38;;;9.30;99.90;;;;;;5087395;28;20040;-79
2021/10/16 07:48:57;;;;;;;15.65;2.28;;;9.30;99.90;;;;;;5088837;28;20104;-79
2021/10/16 07:51:22;;;;;;;8.23;2.10;;;9.30;99.90;;;;;;5086730;28;20043;-79
2021/10/16 07:53:48;;;;;;;10.23;2.13;;;9.40;99.90;;;;;;5095354;28;20040;-79
2021/10/16 07:56:14;;;;;;;14.73;2.42;;;9.40;99.90;;;;;;5096640;28;20040;-79
2021/10/16 07:58:41;;;;;;;7.15;2.15;;;9.40;99.90;;;;;;5091300;28;20486;-79
2021/10/16 08:01:08;;;;;;;8.77;1.70;;;9.50;99.90;;;;;;5090065;28;20402;-79
2021/10/16 08:03:33;;;;;;;9.98;3.53;;;9.50;99.90;;;;;;5074529;28;20435;-79
2021/10/16 08:06:00;;;;;;;5.40;1.67;;;9.60;99.90;;;;;;5088647;28;20158;-79
2021/10/16 08:08:27;;;;;;;12.32;2.35;;;9.60;99.90;;;;;;5086515;28;20059;-79
2021/10/16 08:10:53;;;;;;;6.60;1.20;;;9.70;99.90;;;;;;5092644;28;20048;-79
2021/10/16 08:13:19;;;;;;;12.23;1.80;;;9.70;99.90;;;;;;5094931;28;20047;-79
2021/10/16 08:15:46;;;;;;;17.05;3.08;;;9.80;99.90;;;;;;5109027;28;20048;-80
2021/10/16 08:18:11;;;;;;;12.85;2.05;;;9.80;99.90;;;;;;5091343;28;20422;-79
2021/10/16 08:20:37;;;;;;;12.63;1.92;;;9.80;99.90;;;;;;5109518;28;20177;-79
2021/10/16 08:23:05;;;;;;;13.48;2.22;;;9.90;99.90;;;;;;5109966;28;20040;-79
2021/10/16 08:25:31;;;;;;;12.20;1.83;;;9.90;99.90;;;;;;5106299;28;20043;-79
2021/10/16 08:27:58;;;;;;;6.80;1.80;;;10.00;99.90;;;;;;5109380;28;20078;-79
2021/10/16 08:30:24;;;;;;;14.02;2.05;;;10.00;99.90;;;;;;5108455;28;20032;-79
2021/10/16 08:32:50;;;;;;;15.15;2.55;;;10.10;99.90;;;;;;5108538;28;20043;-79
2021/10/16 08:35:15;;;;;;;8.20;1.88;;;10.10;99.90;;;;;;5108893;28;20062;-78
2021/10/16 08:37:41;;;;;;;11.90;2.08;;;10.20;99.90;;;;;;5099262;28;20048;-79
2021/10/16 08:40:07;;;;;;;8.48;1.60;;;10.20;99.90;;;;;;5101790;28;20048;-78
2021/10/16 08:42:36;;;;;;;14.93;3.33;;;10.20;99.90;;;;;;5088636;28;20047;-80
2021/10/16 08:45:04;;;;;;;8.38;1.70;;;10.30;99.90;;;;;;5087719;28;20039;-80
2021/10/16 08:47:34;;;;;;;12.25;2.00;;;10.30;99.90;;;;;;5084425;28;20063;-81
2021/10/16 08:50:00;;;;;;;;;;;10.30;99.90;;;;;;5084307;28;20046;-80
2021/10/16 08:52:26;;;;;;;17.83;2.13;;;10.40;99.90;;;;;;5086839;28;19919;-80
2021/10/16 08:54:52;;;;;;;9.70;1.65;;;10.40;99.90;;;;;;5087910;28;20086;-80
2021/10/16 08:57:20;;;;;;;10.02;1.35;;;10.50;99.90;;;;;;5087215;28;20067;-80
2021/10/16 08:59:46;;;;;;;10.55;1.90;;;10.50;99.90;;;;;;5087132;28;20052;-80
2021/10/16 09:02:12;;;;;;;11.90;2.35;;;10.50;99.90;;;;;;5092871;28;20556;-81
2021/10/16 09:04:37;;;;;;;17.27;2.65;;;10.60;99.90;;;;;;5086026;28;20085;-80
2021/10/16 09:07:23;;;;;;;10.63;2.38;;;10.60;99.90;;;;;;5093556;28;20048;-80
2021/10/16 09:09:51;;;;;;;7.47;1.77;;;10.70;99.90;;;;;;5085930;28;20156;-80
2021/10/16 09:12:18;;;;;;;18.27;2.25;;;10.70;99.90;;;;;;5102530;28;20055;-80
2021/10/16 09:14:46;;;;;;;12.30;2.47;;;10.70;99.90;;;;;;5099609;28;20481;-80
2021/10/16 09:17:14;;;;;;;5.55;1.67;;;10.80;99.90;;;;;;5099972;28;20036;-81
2021/10/16 09:19:40;;;;;;;7.70;1.90;;;10.80;99.90;;;;;;5119026;27;20075;-81
2021/10/16 09:22:24;;;;;;;6.82;1.80;;;10.80;99.90;;;;;;5101527;28;20079;-81
2021/10/16 09:24:50;;;;;;;4.72;1.77;;;10.90;99.90;;;;;;5102666;28;20083;-81
2021/10/16 09:27:20;;;;;;;10.20;2.33;;;10.90;99.90;;;;;;5074187;28;20536;-81
2021/10/16 09:30:00;;;;;;;7.43;2.13;;;11.00;99.90;;;;;;5098759;28;20086;-81
2021/10/16 09:32:28;;;;;;;17.45;2.88;;;11.00;99.90;;;;;;5102667;28;20051;-81
2021/10/16 09:35:02;;;;;;;10.23;1.80;;;11.10;99.90;;;;;;5100723;28;20040;-81
2021/10/16 09:37:27;;;;;;;14.23;3.08;;;11.10;99.90;;;;;;5101852;28;20497;-81
2021/10/16 09:39:57;;;;;;;10.00;2.15;;;11.10;99.90;;;;;;5101801;28;20052;-81
2021/10/16 09:42:42;;;;;;;6.25;2.05;;;11.10;99.90;;;;;;5102654;28;20093;-81
2021/10/16 09:45:14;;;;;;;11.50;2.10;;;11.20;99.90;;;;;;5084303;28;20383;-81
2021/10/16 09:47:54;;;;;;;13.35;2.10;;;11.20;99.90;;;;;;5108213;28;20044;-81
2021/10/16 09:50:20;;;;;;;8.07;2.08;;;11.30;99.90;;;;;;5110104;28;20514;-81
2021/10/16 09:52:48;;;;;;;14.57;2.25;;;11.40;99.90;;;;;;5083619;28;20063;-80
2021/10/16 09:55:15;;;;;;;7.35;2.10;;;11.40;99.90;;;;;;5104662;28;20048;-80
2021/10/16 09:57:44;;;;;;;10.13;2.50;;;11.40;99.90;;;;;;5104440;28;20047;-80
2021/10/16 10:00:11;;;;;;;8.98;2.13;;;11.50;99.90;;;;;;5106827;28;20039;-80
2021/10/16 10:02:38;;;;;;;11.57;2.30;;;11.50;99.90;;;;;;5107237;28;20440;-80
2021/10/16 10:05:06;;;;;;;13.45;2.50;;;11.50;99.90;;;;;;5105733;28;20071;-80
2021/10/16 10:07:34;;;;;;;8.18;2.25;;;11.60;99.90;;;;;;5104534;28;20056;-80
2021/10/16 10:10:00;;;;;;;11.23;2.22;;;11.60;99.90;;;;;;5094863;28;20056;-80
2021/10/16 10:12:27;;;;;;;9.65;2.08;;;11.60;99.90;;;;;;5107967;28;20131;-81
2021/10/16 10:14:54;;;;;;;9.35;2.08;;;11.70;99.90;;;;;;5107436;28;20107;-80
2021/10/16 10:17:31;;;;;;;14.82;2.40;;;11.70;99.90;;;;;;5101940;28;20096;-81
2021/10/16 10:20:05;;;;;;;7.65;1.60;;;11.70;99.90;;;;;;5105799;28;20047;-80
2021/10/16 10:22:34;;;;;;;11.88;1.83;;;11.80;99.90;;;;;;5096566;28;20120;-81
2021/10/16 10:25:01;;;;;;;15.40;2.35;;;11.90;99.90;;;;;;5090725;28;20044;-80
2021/10/16 10:27:27;;;;;;;5.28;1.77;;;11.90;99.90;;;;;;5089058;28;20044;-80
2021/10/16 10:29:54;;;;;;;6.82;2.78;;;12.00;99.90;;;;;;5108000;28;20478;-81
2021/10/16 10:32:21;;;;;;;12.07;2.20;;;12.00;99.90;;;;;;5090985;28;20050;-80
2021/10/16 10:35:03;;;;;;;9.63;1.88;;;12.10;99.90;;;;;;5100276;28;20269;-80
2021/10/16 10:37:39;;;;;;;6.25;1.92;;;12.10;99.90;;;;;;5107101;28;20489;-81
2021/10/16 10:40:14;;;;;;;6.13;1.90;;;12.20;99.90;;;;;;5096108;28;20435;-80
2021/10/16 10:42:51;;;;;;;8.77;2.30;;;12.20;99.90;;;;;;5089868;28;20044;-80
2021/10/16 10:45:28;;;;;;;9.68;2.00;;;12.30;99.90;;;;;;5089536;28;20363;-80
2021/10/16 10:47:59;;;;;;;10.07;2.35;;;12.30;99.90;;;;;;5089179;28;20119;-80
2021/10/16 10:50:40;;;;;;;4.75;1.35;;;12.30;99.90;;;;;;5089941;28;20048;-80
2021/10/16 10:53:07;;;;;;;9.32;1.60;;;12.40;99.90;;;;;;5094136;28;20413;-80
2021/10/16 10:55:54;;;;;;;8.10;1.90;;;12.50;99.90;;;;;;5077543;28;20083;-80
2021/10/16 10:58:21;;;;;;;6.63;1.67;;;12.50;99.90;;;;;;5114378;27;20490;-81
2021/10/16 11:00:48;;;;;;;10.88;2.00;;;12.60;99.90;;;;;;5071702;28;20044;-81
2021/10/16 11:03:32;;;;;;;7.00;1.77;;;12.60;99.90;;;;;;5082066;28;20047;-81
2021/10/16 11:06:17;;;;;;;4.55;1.40;;;12.60;99.90;;;;;;5104270;28;20052;-81
2021/10/16 11:08:44;;;;;;;6.03;1.50;;;12.60;99.90;;;;;;5095905;28;20060;-81
2021/10/16 11:11:10;;;;;;;9.73;1.80;;;12.70;99.90;;;;;;5105969;28;20046;-81
2021/10/16 11:13:36;;;;;;;7.28;1.48;;;12.70;99.90;;;;;;5070859;28;20047;-81
2021/10/16 11:16:06;;;;;;;5.25;1.90;;;12.80;99.90;;;;;;5091541;28;20058;-81
2021/10/16 11:18:32;;;;;;;8.50;1.80;;;12.80;99.90;;;;;;5106286;28;20096;-81
2021/10/16 11:21:10;;;;;;;9.77;1.80;;;12.90;99.90;;;;;;5092907;28;20097;-81
2021/10/16 11:23:38;;;;;;;8.25;1.92;;;12.90;99.90;;;;;;5091094;28;20054;-81
2021/10/16 11:26:10;;;;;;;10.27;2.10;;;13.00;99.90;;;;;;5103956;28;20044;-80
2021/10/16 11:28:37;;;;;;;9.07;1.95;;;13.10;99.90;;;;;;5083446;28;20089;-82
2021/10/16 11:31:04;;;;;;;10.02;2.00;;;13.10;99.90;;;;;;5088345;28;20055;-82
2021/10/16 11:33:32;;;;;;;8.75;2.60;;;13.10;99.90;;;;;;5089395;28;20157;-81
2021/10/16 11:36:00;;;;;;;9.20;3.13;;;13.10;99.90;;;;;;5086872;28;20048;-81
2021/10/16 11:38:29;;;;;;;12.43;1.70;;;13.20;99.90;;;;;;5096810;28;20032;-82
2021/10/16 11:40:56;;;;;;;10.88;3.17;;;13.20;99.90;;;;;;5087179;28;20565;-81
2021/10/16 11:43:24;;;;;;;14.02;2.35;;;13.30;99.90;;;;;;5070095;28;20078;-81
2021/10/16 11:45:52;;;;;;;6.53;1.63;;;13.40;99.90;;;;;;5088497;28;20458;-81
2021/10/16 11:48:19;;;;;;;6.70;2.20;;;13.40;99.90;;;;;;5103832;28;20056;-81
2021/10/16 11:50:51;;;;;;;11.00;2.50;;;13.40;99.90;;;;;;5086107;28;20048;-82
2021/10/16 11:53:31;;;;;;;10.20;1.80;;;13.50;99.90;;;;;;5087700;28;20050;-81
2021/10/16 11:55:59;;;;;;;5.30;1.95;;;13.60;99.90;;;;;;5088410;28;20075;-81
2021/10/16 11:58:27;;;;;;;10.68;1.98;;;13.50;99.90;;;;;;5104564;28;20100;-81
2021/10/16 12:00:55;;;;;;;8.80;1.80;;;13.60;99.90;;;;;;5087861;28;20047;-81
2021/10/16 12:03:33;;;;;;;11.70;2.08;;;13.60;99.90;;;;;;5090230;28;20040;-82
2021/10/16 12:06:04;;;;;;;11.20;1.90;;;13.60;99.90;;;;;;5103849;28;20059;-81
2021/10/16 12:08:32;;;;;;;5.00;1.58;;;13.70;99.90;;;;;;5091375;28;20056;-81
2021/10/16 12:11:00;;;;;;;9.63;2.05;;;13.70;99.90;;;;;;5092496;28;20056;-82
2021/10/16 12:13:55;;;;;;;6.50;1.80;;;13.70;99.90;;;;;;5107761;28;20047;-82
2021/10/16 12:16:24;;;;;;;6.07;1.55;;;13.70;99.90;;;;;;5104487;28;20512;-82
2021/10/16 12:18:55;;;;;;;4.07;1.65;;;13.80;99.90;;;;;;5106619;28;20093;-81
2021/10/16 12:21:41;;;;;;;8.10;1.83;;;13.70;99.90;;;;;;5105735;28;20035;-82
2021/10/16 12:24:10;;;;;;;9.95;1.42;;;13.80;99.90;;;;;;5077179;28;20052;-81
2021/10/16 12:26:37;;;;;;;7.22;1.70;;;13.80;99.90;;;;;;5088205;28;20052;-81
2021/10/16 12:29:07;;;;;;;7.57;1.80;;;13.70;99.90;;;;;;5070761;28;20048;-81
2021/10/16 12:31:47;;;;;;;10.98;1.67;;;13.80;99.90;;;;;;5087762;28;20397;-81
2021/10/16 12:34:19;;;;;;;10.15;1.88;;;13.90;99.90;;;;;;5105404;28;20048;-81
2021/10/16 12:36:54;;;;;;;6.53;1.98;;;13.90;99.90;;;;;;5090315;28;20048;-81
2021/10/16 12:39:26;;;;;;;14.02;3.55;;;13.80;99.90;;;;;;5088508;28;20054;-81
2021/10/16 12:41:52;;;;;;;8.00;1.40;;;13.90;99.90;;;;;;5086705;28;20236;-81
2021/10/16 12:44:28;;;;;;;9.80;1.80;;;13.90;99.90;;;;;;5086544;28;20051;-83
2021/10/16 12:47:14;;;;;;;5.88;1.50;;;13.80;99.90;;;;;;5086594;28;20097;-82
2021/10/16 12:49:57;;;;;;;7.38;1.75;;;13.80;99.90;;;;;;5086056;28;20067;-80